Time;durP1;ratioP1;P1;durP2;ratioP2;P2;SDS_P1;SDS_P2;PMS_P1;PMS_P2;Temp;Humidity;BMP_temperature;BMP_pressure;BME280_temperature;BME280_humidity;BME280_pressure;Samples;Min_cycle;Max_cycle;Signal;HPM_P1;HPM_P2
2021/05/18 00:00:56;;;;;;;15.73;9.67;;;10.40;99.90;;;;;;5026797;28;20586;-53
2021/05/18 00:03:24;;;;;;;15.13;10.20;;;10.40;99.90;;;;;;5027492;28;20321;-53
2021/05/18 00:05:56;;;;;;;11.80;9.77;;;10.40;99.90;;;;;;5027384;28;20273;-52
2021/05/18 00:08:27;;;;;;;15.20;9.73;;;10.40;99.90;;;;;;5026583;28;20328;-53
2021/05/18 00:13:50;;;;;;;13.87;10.47;;;10.30;99.90;;;;;;5027243;28;20246;-53
2021/05/18 00:16:19;;;;;;;15.17;10.40;;;10.30;99.90;;;;;;5027026;28;20241;-53
2021/05/18 00:18:47;;;;;;;17.40;10.30;;;10.30;99.90;;;;;;5026352;28;20276;-53
2021/05/18 00:21:15;;;;;;;15.80;10.63;;;10.30;99.90;;;;;;5026201;28;20699;-52
2021/05/18 00:23:43;;;;;;;13.97;10.90;;;10.30;99.90;;;;;;5027343;28;20230;-52
2021/05/18 00:26:12;;;;;;;13.43;10.53;;;10.30;99.90;;;;;;5027735;28;20293;-52
2021/05/18 00:28:40;;;;;;;15.17;10.07;;;10.20;99.90;;;;;;5030739;28;20312;-52
2021/05/18 00:31:09;;;;;;;14.47;10.37;;;10.20;99.90;;;;;;5029858;28;20226;-53
2021/05/18 00:33:37;;;;;;;14.30;10.70;;;10.20;99.90;;;;;;5026447;28;20240;-56
2021/05/18 00:36:06;;;;;;;16.67;10.03;;;10.20;99.90;;;;;;5029793;28;20288;-53
2021/05/18 00:38:35;;;;;;;14.87;9.67;;;10.10;99.90;;;;;;5029912;28;20312;-53
2021/05/18 00:41:05;;;;;;;16.77;9.50;;;10.10;99.90;;;;;;5029603;28;20237;-53
2021/05/18 00:43:33;;;;;;;13.93;9.33;;;10.10;99.90;;;;;;5030434;28;20323;-53
2021/05/18 00:46:02;;;;;;;14.53;8.67;;;10.10;99.90;;;;;;5030106;28;20242;-52
2021/05/18 00:48:31;;;;;;;13.07;8.17;;;10.10;99.90;;;;;;5030131;28;20289;-54
2021/05/18 00:51:07;;;;;;;13.97;7.93;;;10.10;99.90;;;;;;5029773;28;20229;-52
2021/05/18 00:53:37;;;;;;;14.43;7.60;;;10.10;99.90;;;;;;5029910;28;20252;-53
2021/05/18 00:58:25;;;;;;;14.30;7.97;;;10.00;99.90;;;;;;5028488;28;20237;-53
2021/05/18 00:59:20;;;;;;;15.57;9.20;;;10.00;99.90;;;;;;5029844;28;20300;-56
2021/05/18 01:01:48;;;;;;;16.87;8.60;;;10.00;99.90;;;;;;5029637;28;20646;-52
2021/05/18 01:04:17;;;;;;;13.67;9.70;;;10.10;99.90;;;;;;5030127;28;20245;-52
2021/05/18 01:06:45;;;;;;;15.10;8.60;;;10.10;99.90;;;;;;5030085;28;20237;-52
2021/05/18 01:09:14;;;;;;;12.33;8.53;;;10.10;99.90;;;;;;5029516;28;20237;-52
2021/05/18 01:11:48;;;;;;;15.87;8.43;;;10.10;99.90;;;;;;5044789;28;20304;-53
2021/05/18 01:14:18;;;;;;;16.03;8.87;;;10.10;99.90;;;;;;5030183;28;20308;-54
2021/05/18 01:16:49;;;;;;;13.37;8.77;;;10.20;99.90;;;;;;5029991;28;20671;-53
2021/05/18 01:19:20;;;;;;;13.70;9.00;;;10.10;99.90;;;;;;5029305;28;20260;-52
2021/05/18 01:21:49;;;;;;;16.30;8.97;;;10.20;99.90;;;;;;5028977;28;20684;-53
2021/05/18 01:24:20;;;;;;;12.07;8.73;;;10.20;99.90;;;;;;5044900;28;20237;-54
2021/05/18 01:26:50;;;;;;;19.33;10.27;;;10.30;99.90;;;;;;5045120;28;20594;-51
2021/05/18 01:29:22;;;;;;;15.43;9.67;;;10.30;99.90;;;;;;5030764;28;20233;-52
2021/05/18 01:31:51;;;;;;;12.80;9.60;;;10.30;99.90;;;;;;5028335;28;20343;-52
2021/05/18 01:34:19;;;;;;;17.77;9.53;;;10.30;99.90;;;;;;5044666;28;20265;-55
2021/05/18 01:36:49;;;;;;;16.50;9.47;;;10.30;99.90;;;;;;5023865;28;20238;-53
2021/05/18 01:39:41;;;;;;;15.60;9.03;;;10.30;99.90;;;;;;5044468;28;20330;-52
2021/05/18 01:44:57;;;;;;;14.37;9.50;;;10.30;99.90;;;;;;5044812;28;20319;-52
2021/05/18 01:47:25;;;;;;;15.87;9.20;;;10.20;99.90;;;;;;5028052;28;20264;-55
2021/05/18 01:49:54;;;;;;;15.63;9.17;;;10.10;99.90;;;;;;5043873;28;20298;-53
2021/05/18 01:52:23;;;;;;;13.40;8.90;;;10.10;99.90;;;;;;5043337;28;20644;-54
2021/05/18 01:55:12;;;;;;;12.73;6.84;;;10.10;99.90;;;;;;1908956;28;10022794;-57
2021/05/18 01:57:41;;;;;;;13.07;8.77;;;10.30;99.90;;;;;;4678962;28;10001195;-52
2021/05/18 02:00:16;;;;;;;12.70;8.90;;;10.40;99.90;;;;;;5027046;28;20272;-51
2021/05/18 02:02:53;;;;;;;14.23;8.87;;;10.40;99.90;;;;;;5028491;28;20317;-53
2021/05/18 02:05:34;;;;;;;15.30;9.40;;;10.40;99.90;;;;;;5009538;28;20230;-52
2021/05/18 02:08:22;;;;;;;13.17;9.50;;;10.40;99.90;;;;;;5008754;28;20269;-52
2021/05/18 02:10:55;;;;;;;12.20;8.30;;;10.30;99.90;;;;;;5013817;28;20700;-52
2021/05/18 02:13:24;;;;;;;16.57;9.73;;;10.40;99.90;;;;;;5044008;28;20257;-52
2021/05/18 02:15:57;;;;;;;13.80;9.40;;;10.40;99.90;;;;;;5043877;28;20320;-52
2021/05/18 02:18:54;;;;;;;14.83;9.47;;;10.40;99.90;;;;;;5042772;28;20233;-55
2021/05/18 02:21:38;;;;;;;13.77;9.53;;;10.30;99.90;;;;;;5042533;28;20236;-53
2021/05/18 02:26:55;;;;;;;19.97;10.07;;;10.20;99.90;;;;;;5029382;28;20237;-53
2021/05/18 02:29:23;;;;;;;15.07;9.77;;;10.20;99.90;;;;;;5046172;28;20233;-52
2021/05/18 02:31:54;;;;;;;12.70;8.70;;;10.10;99.90;;;;;;5025995;28;20262;-53
2021/05/18 02:34:34;;;;;;;8.30;7.40;;;10.10;99.90;;;;;;5027079;28;20225;-53
2021/05/18 02:37:04;;;;;;;10.33;7.03;;;10.00;99.90;;;;;;5027012;28;20240;-52
2021/05/18 02:39:34;;;;;;;9.27;6.60;;;10.00;99.90;;;;;;5042951;28;20617;-53
2021/05/18 02:42:05;;;;;;;8.90;6.40;;;10.00;99.90;;;;;;5031625;28;20229;-53
2021/05/18 02:44:39;;;;;;;12.63;6.33;;;10.00;99.90;;;;;;5028079;28;20715;-52
2021/05/18 02:49:59;;;;;;;10.13;6.60;;;10.10;99.90;;;;;;5027288;28;20647;-53
2021/05/18 02:52:28;;;;;;;9.53;6.43;;;10.00;99.90;;;;;;5039246;28;20724;-53
2021/05/18 02:54:57;;;;;;;11.27;7.00;;;9.90;99.90;;;;;;5008310;28;20256;-54
2021/05/18 02:57:33;;;;;;;12.40;7.70;;;9.80;99.90;;;;;;5023191;28;20261;-51
2021/05/18 03:00:06;;;;;;;9.60;7.43;;;9.80;99.90;;;;;;5007627;28;20228;-54
2021/05/18 03:02:33;;;;;;;12.50;8.03;;;9.70;99.90;;;;;;5026848;28;20245;-52
2021/05/18 03:05:02;;;;;;;13.43;8.30;;;9.80;99.90;;;;;;5043254;28;20258;-54
2021/05/18 03:07:30;;;;;;;14.03;8.93;;;9.80;99.90;;;;;;5027918;28;20316;-52
2021/05/18 03:10:02;;;;;;;10.53;8.50;;;9.70;99.90;;;;;;5027042;28;20273;-54
2021/05/18 03:12:30;;;;;;;15.13;9.57;;;9.70;99.90;;;;;;5027808;28;20604;-54
2021/05/18 03:14:58;;;;;;;14.50;10.07;;;9.70;99.90;;;;;;5028305;28;20248;-52
2021/05/18 03:17:27;;;;;;;18.33;9.70;;;9.70;99.90;;;;;;5027652;28;20237;-52
2021/05/18 03:19:55;;;;;;;14.73;10.00;;;9.70;99.90;;;;;;5026033;28;20257;-55
2021/05/18 03:22:23;;;;;;;12.83;9.03;;;9.60;99.90;;;;;;5026974;28;20244;-53
2021/05/18 03:24:50;;;;;;;12.23;9.60;;;9.60;99.90;;;;;;5024627;28;20784;-52
2021/05/18 03:27:19;;;;;;;13.03;9.87;;;9.60;99.90;;;;;;5030085;28;20263;-51
2021/05/18 03:29:50;;;;;;;11.63;9.40;;;9.60;99.90;;;;;;5026679;28;20239;-53
2021/05/18 03:35:06;;;;;;;13.27;10.27;;;9.50;99.90;;;;;;5027047;28;20721;-53
2021/05/18 03:37:44;;;;;;;14.60;10.13;;;9.60;99.90;;;;;;5027173;28;20315;-52
2021/05/18 03:40:14;;;;;;;15.10;9.93;;;9.60;99.90;;;;;;5025985;28;20237;-55
2021/05/18 03:42:46;;;;;;;15.07;9.87;;;9.60;99.90;;;;;;5026635;28;20921;-53
2021/05/18 03:45:17;;;;;;;15.77;10.73;;;9.70;99.90;;;;;;5027265;28;20708;-52
2021/05/18 03:53:33;;;;;;;16.97;10.50;;;9.70;99.90;;;;;;5025581;28;20562;-52
2021/05/18 04:04:17;;;;;;;14.10;9.93;;;9.80;99.90;;;;;;5031550;28;20236;-52
2021/05/18 04:12:42;;;;;;;14.43;10.37;;;9.80;99.90;;;;;;5030718;28;20241;-53
2021/05/18 04:18:04;;;;;;;15.03;10.50;;;9.80;99.90;;;;;;5027520;28;20233;-52
2021/05/18 04:20:43;;;;;;;16.47;10.53;;;9.80;99.90;;;;;;5029498;28;20231;-54
2021/05/18 04:23:32;;;;;;;16.90;11.03;;;9.80;99.90;;;;;;5031924;28;20248;-53
2021/05/18 04:48:42;;;;;;;15.30;10.57;;;10.20;99.90;;;;;;5044678;28;20296;-52
2021/05/18 04:51:18;;;;;;;12.60;9.67;;;10.30;99.90;;;;;;5027086;28;20255;-52
2021/05/18 04:54:06;;;;;;;13.57;9.77;;;10.30;99.90;;;;;;5029918;28;20237;-53
2021/05/18 04:59:23;;;;;;;12.97;9.70;;;10.30;99.90;;;;;;5029061;28;20568;-54
2021/05/18 05:02:05;;;;;;;14.63;9.80;;;10.30;99.90;;;;;;5029475;28;20245;-52
2021/05/18 05:07:27;;;;;;;17.57;9.30;;;10.40;99.90;;;;;;5030220;28;20287;-53
2021/05/18 05:09:54;;;;;;;17.90;10.33;;;10.50;99.90;;;;;;5029239;28;20237;-52
2021/05/18 05:12:50;;;;;;;15.47;9.20;;;10.40;99.90;;;;;;5028483;28;20677;-52
2021/05/18 05:15:18;;;;;;;16.80;9.93;;;10.50;99.90;;;;;;5029076;28;20292;-52
2021/05/18 05:17:46;;;;;;;14.80;9.40;;;10.40;99.90;;;;;;5027400;28;20233;-56
2021/05/18 05:20:14;;;;;;;19.40;10.10;;;10.40;99.90;;;;;;5026915;28;20235;-52
2021/05/18 05:22:42;;;;;;;12.63;9.83;;;10.50;99.90;;;;;;5030410;28;20241;-52
2021/05/18 05:25:11;;;;;;;15.63;10.37;;;10.60;99.90;;;;;;5027147;28;20250;-53
2021/05/18 05:27:40;;;;;;;15.80;10.17;;;10.60;99.90;;;;;;5028128;28;20239;-52
2021/05/18 05:30:10;;;;;;;17.57;10.23;;;10.60;99.90;;;;;;5027208;28;20230;-52
2021/05/18 05:32:38;;;;;;;16.70;10.83;;;10.60;99.90;;;;;;5026410;28;20241;-52
2021/05/18 05:35:07;;;;;;;14.60;10.03;;;10.60;99.90;;;;;;5025070;28;20242;-51
2021/05/18 05:37:38;;;;;;;15.70;10.90;;;10.60;99.90;;;;;;5024691;28;20376;-52
2021/05/18 05:40:08;;;;;;;17.93;10.97;;;10.60;99.90;;;;;;5025471;28;20264;-51
2021/05/18 05:42:36;;;;;;;16.23;11.10;;;10.60;99.90;;;;;;5025350;28;20748;-52
2021/05/18 05:45:05;;;;;;;15.77;10.53;;;10.70;99.90;;;;;;5026117;28;21049;-52
2021/05/18 05:47:33;;;;;;;17.60;10.47;;;10.70;99.90;;;;;;5039768;28;20241;-54
2021/05/18 05:50:01;;;;;;;15.60;10.67;;;10.80;99.90;;;;;;5024532;28;20805;-52
2021/05/18 05:52:31;;;;;;;17.60;11.00;;;10.80;99.90;;;;;;5021015;28;20250;-52
2021/05/18 05:55:00;;;;;;;15.57;10.37;;;10.80;99.90;;;;;;5020188;28;20717;-52
2021/05/18 05:57:28;;;;;;;16.07;10.63;;;10.90;99.90;;;;;;5016927;28;20246;-52
2021/05/18 05:59:55;;;;;;;20.07;10.97;;;10.90;99.90;;;;;;5024039;28;20603;-52
2021/05/18 06:02:24;;;;;;;14.77;10.70;;;10.90;99.90;;;;;;5025520;28;20243;-53
2021/05/18 06:04:51;;;;;;;16.77;10.57;;;11.00;99.90;;;;;;5026512;28;20701;-51
2021/05/18 06:07:19;;;;;;;17.67;11.13;;;11.00;99.90;;;;;;5025864;28;20241;-51
2021/05/18 06:09:51;;;;;;;17.20;11.77;;;11.10;99.90;;;;;;5025292;28;20248;-53
2021/05/18 06:12:29;;;;;;;15.97;11.13;;;11.10;99.90;;;;;;5025897;28;20236;-56
2021/05/18 06:15:18;;;;;;;15.10;10.63;;;11.20;99.90;;;;;;5026439;28;20245;-52
2021/05/18 06:18:08;;;;;;;15.50;11.70;;;11.20;99.90;;;;;;5026178;28;20641;-54
2021/05/18 06:35:03;;;;;;;17.03;11.90;;;11.70;99.90;;;;;;5027428;28;20242;-52
2021/05/18 06:43:07;;;;;;;16.13;11.33;;;11.90;99.90;;;;;;5027728;28;20599;-55
2021/05/18 06:48:25;;;;;;;14.27;10.73;;;12.00;99.90;;;;;;5023862;28;20246;-53
2021/05/18 06:50:53;;;;;;;15.83;11.73;;;12.20;99.90;;;;;;5026876;28;20866;-52
2021/05/18 06:53:21;;;;;;;17.47;10.73;;;12.20;99.90;;;;;;5027200;28;20250;-52
2021/05/18 06:55:51;;;;;;;15.27;10.67;;;12.40;99.90;;;;;;5026274;28;20290;-52
2021/05/18 06:58:46;;;;;;;14.83;11.20;;;12.50;99.90;;;;;;5026977;28;20230;-52
2021/05/18 07:01:14;;;;;;;15.37;10.77;;;12.70;99.90;;;;;;5025490;28;20705;-54
2021/05/18 07:03:43;;;;;;;15.77;11.50;;;12.80;99.90;;;;;;5026531;28;20339;-52
2021/05/18 07:06:23;;;;;;;15.07;10.40;;;13.00;99.90;;;;;;5026529;28;20238;-53
2021/05/18 07:08:56;;;;;;;17.60;11.07;;;13.00;99.90;;;;;;5026287;28;20254;-55
2021/05/18 07:11:25;;;;;;;14.53;11.00;;;13.10;99.90;;;;;;5024940;28;20239;-55
2021/05/18 07:13:53;;;;;;;14.07;11.10;;;13.10;99.90;;;;;;5024928;28;20245;-52
2021/05/18 07:16:22;;;;;;;12.97;10.53;;;13.10;99.90;;;;;;5024417;28;20267;-54
2021/05/18 07:18:50;;;;;;;15.67;10.63;;;13.10;99.90;;;;;;5024532;28;20239;-55
2021/05/18 07:21:20;;;;;;;13.33;10.37;;;13.30;99.90;;;;;;5024840;28;20262;-54
2021/05/18 07:23:49;;;;;;;10.87;9.73;;;13.40;99.90;;;;;;5025397;28;20293;-54
2021/05/18 07:26:17;;;;;;;12.67;9.80;;;13.60;99.90;;;;;;5026151;28;20240;-52
2021/05/18 07:28:45;;;;;;;13.10;9.63;;;13.70;99.90;;;;;;5025201;28;20933;-53
2021/05/18 07:31:14;;;;;;;14.63;9.77;;;13.80;99.90;;;;;;5024880;28;20783;-52
2021/05/18 07:33:42;;;;;;;13.00;9.13;;;14.00;99.90;;;;;;5025188;28;20243;-52
2021/05/18 07:36:10;;;;;;;10.43;9.33;;;14.00;99.90;;;;;;5025327;28;20710;-52
2021/05/18 07:38:42;;;;;;;12.07;8.60;;;14.20;99.90;;;;;;5025176;28;20239;-52
2021/05/18 07:41:11;;;;;;;9.17;7.90;;;14.30;99.90;;;;;;5025288;28;20617;-53
2021/05/18 07:43:38;;;;;;;9.33;8.20;;;14.30;99.90;;;;;;5025596;28;20318;-53
2021/05/18 07:46:13;;;;;;;11.20;7.73;;;14.40;99.90;;;;;;5025945;28;20239;-54
2021/05/18 07:48:45;;;;;;;11.23;7.90;;;14.60;99.90;;;;;;5026144;28;20235;-53
2021/05/18 07:51:23;;;;;;;8.97;6.77;;;14.60;99.90;;;;;;5025774;28;20275;-53
2021/05/18 07:59:27;;;;;;;7.70;6.90;;;14.50;99.90;;;;;;5026683;28;20250;-53
2021/05/18 08:07:28;;;;;;;8.90;7.03;;;14.60;99.90;;;;;;5026464;28;20347;-52
2021/05/18 08:09:59;;;;;;;10.20;6.70;;;14.60;99.90;;;;;;5024660;28;20233;-55
2021/05/18 08:12:27;;;;;;;7.80;6.90;;;14.60;99.90;;;;;;5024096;28;20235;-52
2021/05/18 08:15:04;;;;;;;7.90;6.50;;;14.60;99.90;;;;;;5022798;28;20236;-52
2021/05/18 08:17:37;;;;;;;7.27;6.17;;;14.70;99.90;;;;;;5027404;28;20236;-54
2021/05/18 10:36:03;;;;;;;5.27;4.77;;;15.30;99.90;;;;;;5026758;28;20615;-53
2021/05/18 10:38:36;;;;;;;5.73;4.67;;;15.10;99.90;;;;;;5025322;28;20233;-55
2021/05/18 10:41:17;;;;;;;4.40;4.00;;;15.10;99.90;;;;;;5025363;28;20251;-54
2021/05/18 10:43:55;;;;;;;4.10;3.80;;;14.90;99.90;;;;;;5022196;28;20236;-53
2021/05/18 10:46:25;;;;;;;5.47;3.80;;;14.80;99.90;;;;;;5025662;28;20305;-54
2021/05/18 10:49:11;;;;;;;5.03;4.40;;;14.80;99.90;;;;;;5027476;28;20271;-53
2021/05/18 10:51:54;;;;;;;4.63;4.23;;;15.00;99.90;;;;;;5026407;28;20243;-55
2021/05/18 10:54:59;;;;;;;4.57;4.13;;;15.20;99.90;;;;;;5008032;28;20240;-54
2021/05/18 10:57:30;;;;;;;3.90;3.50;;;15.60;99.90;;;;;;5004574;28;20241;-57
2021/05/18 11:00:01;;;;;;;4.90;4.20;;;15.80;99.90;;;;;;5023809;28;20243;-53
2021/05/18 11:02:33;;;;;;;4.67;4.10;;;16.10;99.90;;;;;;5018549;28;20723;-54
2021/05/18 11:05:05;;;;;;;4.67;4.00;;;16.30;99.90;;;;;;5027298;28;20236;-54
2021/05/18 11:07:35;;;;;;;4.33;3.90;;;16.50;99.90;;;;;;5025499;28;20731;-53
2021/05/18 11:10:07;;;;;;;4.30;3.90;;;16.70;99.90;;;;;;5019688;28;20224;-55
2021/05/18 11:12:36;;;;;;;4.80;3.73;;;16.50;99.90;;;;;;5026965;28;20902;-53
2021/05/18 11:15:13;;;;;;;4.53;3.90;;;16.40;99.90;;;;;;5026125;28;20566;-55
2021/05/18 11:17:43;;;;;;;5.80;4.07;;;16.30;99.90;;;;;;5027523;28;20267;-53
2021/05/18 11:20:23;;;;;;;4.00;3.70;;;16.40;99.90;;;;;;5025500;28;20248;-54
2021/05/18 11:25:49;;;;;;;4.93;3.60;;;16.50;99.90;;;;;;5026341;28;20251;-55
2021/05/18 11:28:24;;;;;;;3.93;3.50;;;16.40;99.90;;;;;;5026016;28;20309;-54
2021/05/18 11:30:54;;;;;;;4.10;3.03;;;16.10;99.90;;;;;;5022472;28;20240;-56
2021/05/18 11:33:30;;;;;;;3.90;3.50;;;16.10;99.90;;;;;;5023653;28;20615;-54
2021/05/18 11:36:11;;;;;;;5.27;3.90;;;16.00;99.90;;;;;;5021069;28;20290;-53
2021/05/18 11:38:42;;;;;;;3.60;3.30;;;15.80;99.90;;;;;;5019985;28;20750;-53
2021/05/18 11:41:10;;;;;;;4.13;3.73;;;15.50;99.90;;;;;;5024176;28;20294;-54
2021/05/18 11:43:38;;;;;;;4.23;3.83;;;15.30;99.90;;;;;;5026570;28;20237;-53
2021/05/18 11:46:09;;;;;;;4.40;4.00;;;15.20;99.90;;;;;;5026603;28;20287;-53
2021/05/18 11:48:43;;;;;;;4.30;3.90;;;15.10;99.90;;;;;;5026534;28;20224;-54
2021/05/18 11:51:15;;;;;;;4.50;4.10;;;15.10;99.90;;;;;;5025658;28;20236;-54
2021/05/18 11:53:46;;;;;;;5.20;4.00;;;15.00;99.90;;;;;;5026798;28;20329;-54
2021/05/18 11:56:24;;;;;;;4.63;4.23;;;15.00;99.90;;;;;;5027083;28;20255;-53
2021/05/18 11:59:01;;;;;;;4.97;4.47;;;15.00;99.90;;;;;;5026835;28;20327;-54
2021/05/18 12:01:30;;;;;;;5.07;4.57;;;15.00;99.90;;;;;;5024134;28;20613;-55
2021/05/18 12:04:01;;;;;;;5.23;4.27;;;15.00;99.90;;;;;;5025406;28;20240;-56
2021/05/18 12:06:33;;;;;;;4.60;4.13;;;15.00;99.90;;;;;;5026215;28;20232;-53
2021/05/18 12:09:03;;;;;;;5.60;5.00;;;15.00;99.90;;;;;;5024999;28;20464;-55
2021/05/18 12:11:31;;;;;;;5.30;4.70;;;14.90;99.90;;;;;;5025706;28;20244;-58
2021/05/18 12:13:59;;;;;;;5.07;4.43;;;14.70;99.90;;;;;;5026630;28;20236;-53
2021/05/18 12:16:27;;;;;;;4.77;4.27;;;14.00;99.90;;;;;;5042246;28;20232;-53
2021/05/18 12:18:57;;;;;;;4.20;3.80;;;13.80;99.90;;;;;;5046682;28;20579;-53
2021/05/18 12:21:29;;;;;;;3.90;3.50;;;13.80;99.90;;;;;;5048411;28;20255;-60
2021/05/18 12:24:11;;;;;;;3.60;3.20;;;13.80;99.90;;;;;;5050496;28;20588;-58
2021/05/18 12:26:51;;;;;;;3.47;3.17;;;14.00;99.90;;;;;;5049870;28;20232;-59
2021/05/18 12:29:28;;;;;;;3.80;3.40;;;14.20;99.90;;;;;;5050449;28;20263;-58
2021/05/18 12:32:17;;;;;;;3.30;3.00;;;14.40;99.90;;;;;;5027956;28;20599;-58
2021/05/18 12:34:46;;;;;;;3.60;3.20;;;14.60;99.90;;;;;;5022878;28;20777;-58
2021/05/18 12:37:14;;;;;;;3.30;1.60;;;14.80;99.90;;;;;;5029172;28;20236;-58
2021/05/18 12:39:45;;;;;;;1.40;1.30;;;14.90;99.90;;;;;;5028264;28;20306;-59
2021/05/18 12:42:16;;;;;;;1.80;1.70;;;14.80;99.90;;;;;;5028795;28;20727;-58
2021/05/18 12:44:56;;;;;;;2.40;2.00;;;14.80;99.90;;;;;;5028512;28;20236;-59
2021/05/18 12:47:30;;;;;;;2.40;1.83;;;14.90;99.90;;;;;;5028827;28;20243;-58
2021/05/18 12:49:58;;;;;;;1.97;1.87;;;15.00;99.90;;;;;;5022225;28;20254;-57
2021/05/18 12:52:36;;;;;;;2.00;1.80;;;15.20;99.90;;;;;;5021813;28;20325;-59
2021/05/18 12:55:17;;;;;;;2.83;2.17;;;15.30;99.90;;;;;;5021430;28;20247;-59
2021/05/18 12:57:52;;;;;;;1.90;1.67;;;15.70;99.90;;;;;;5020915;28;20232;-57
2021/05/18 13:00:26;;;;;;;2.70;2.10;;;15.90;99.90;;;;;;5023791;28;20282;-58
2021/05/18 13:02:55;;;;;;;2.10;1.90;;;16.10;99.90;;;;;;5030773;28;20253;-58
2021/05/18 13:05:28;;;;;;;1.87;1.77;;;16.30;99.90;;;;;;5031195;28;20237;-56
2021/05/18 13:08:22;;;;;;;2.33;1.80;;;16.60;99.90;;;;;;5035311;28;20828;-59
2021/05/18 13:11:07;;;;;;;1.73;1.63;;;16.70;99.90;;;;;;5007950;28;20731;-59
2021/05/18 13:13:47;;;;;;;2.50;1.90;;;16.90;99.90;;;;;;4991057;28;20262;-56
2021/05/18 13:16:20;;;;;;;3.30;2.30;;;16.90;99.90;;;;;;5021479;28;20244;-59
2021/05/18 13:18:58;;;;;;;2.77;2.33;;;16.90;99.90;;;;;;5019162;28;20255;-56
2021/05/18 13:21:32;;;;;;;2.40;2.20;;;17.00;99.90;;;;;;5021401;28;20327;-59
2021/05/18 13:26:44;;;;;;;2.60;2.40;;;16.80;99.90;;;;;;5020541;28;20592;-58
2021/05/18 13:29:16;;;;;;;3.43;2.60;;;16.90;99.90;;;;;;5024615;28;20244;-59
2021/05/18 13:31:46;;;;;;;2.87;2.30;;;16.90;99.90;;;;;;4989832;28;20251;-59
2021/05/18 13:34:20;;;;;;;2.73;2.43;;;17.00;99.90;;;;;;4995053;28;20318;-59
2021/05/18 13:36:49;;;;;;;3.03;2.73;;;17.30;99.90;;;;;;4985503;28;20242;-57
2021/05/18 13:39:20;;;;;;;3.00;2.80;;;17.30;99.90;;;;;;5013391;28;20773;-55
2021/05/18 13:41:50;;;;;;;3.10;2.67;;;17.40;99.90;;;;;;4986925;28;20240;-59
2021/05/18 13:44:20;;;;;;;3.87;2.87;;;17.50;99.90;;;;;;4985279;28;20256;-57
2021/05/18 13:46:52;;;;;;;3.20;2.90;;;17.30;99.90;;;;;;4988245;28;21496;-57
2021/05/18 13:49:22;;;;;;;5.80;3.60;;;17.00;99.90;;;;;;4987425;28;20232;-57
2021/05/18 13:52:16;;;;;;;3.83;3.10;;;17.00;99.90;;;;;;5030275;28;20221;-56
2021/05/18 13:54:46;;;;;;;3.40;3.10;;;16.70;99.90;;;;;;5054330;23;20760;-56
2021/05/18 13:57:15;;;;;;;3.27;2.97;;;16.50;99.90;;;;;;4979063;23;20245;-82
2021/05/18 13:59:45;;;;;;;4.00;3.20;;;16.50;99.90;;;;;;4961684;28;20861;-81
2021/05/18 14:02:13;;;;;;;3.03;2.70;;;16.40;99.90;;;;;;5448023;22;20402;-56
2021/05/18 14:04:41;;;;;;;2.93;2.60;;;16.30;99.90;;;;;;5023697;28;20599;-56
2021/05/18 14:08:01;;;;;;;2.90;2.60;;;16.20;99.90;;;;;;5024253;28;20325;-57
2021/05/18 14:10:34;;;;;;;2.80;2.53;;;16.00;99.90;;;;;;5015128;28;20292;-56
2021/05/18 14:13:03;;;;;;;2.87;2.63;;;15.90;99.90;;;;;;5009134;28;20320;-57
2021/05/18 14:15:31;;;;;;;3.07;2.73;;;15.90;99.90;;;;;;5007526;28;20645;-56
2021/05/18 14:17:59;;;;;;;3.40;2.80;;;15.80;99.90;;;;;;5014278;28;20315;-54
2021/05/18 14:20:27;;;;;;;3.23;2.90;;;15.60;99.90;;;;;;5018667;28;20237;-55
2021/05/18 14:22:55;;;;;;;3.10;2.80;;;15.60;99.90;;;;;;5007621;28;20237;-54
2021/05/18 14:25:22;;;;;;;3.43;3.13;;;15.40;99.90;;;;;;5011929;28;20618;-56
2021/05/18 14:28:03;;;;;;;3.43;3.13;;;15.30;99.90;;;;;;5017014;28;20256;-54
2021/05/18 14:30:31;;;;;;;3.47;3.10;;;15.20;99.90;;;;;;5026790;28;20263;-55
2021/05/18 14:32:59;;;;;;;3.30;3.00;;;15.20;99.90;;;;;;5023331;28;20325;-54
2021/05/18 14:35:28;;;;;;;3.40;3.10;;;15.10;99.90;;;;;;5027520;28;20228;-52
2021/05/18 14:38:03;;;;;;;3.30;3.00;;;15.10;99.90;;;;;;5027665;28;20240;-54
2021/05/18 14:40:49;;;;;;;3.10;2.80;;;15.10;99.90;;;;;;5026186;28;20297;-56
2021/05/18 14:43:50;;;;;;;3.70;3.20;;;15.00;99.90;;;;;;5026873;28;20252;-54
2021/05/18 14:46:22;;;;;;;3.87;3.30;;;14.80;99.90;;;;;;5027297;28;20728;-53
2021/05/18 14:57:19;;;;;;;4.30;3.90;;;14.20;99.90;;;;;;5027135;28;20244;-52
2021/05/18 14:59:48;;;;;;;4.83;4.13;;;14.10;99.90;;;;;;5022599;28;20947;-52
2021/05/18 15:02:17;;;;;;;4.67;4.07;;;14.00;99.90;;;;;;5006713;28;20241;-53
2021/05/18 15:04:45;;;;;;;5.87;4.47;;;13.90;99.90;;;;;;5008563;28;20241;-52
2021/05/18 15:07:13;;;;;;;5.10;3.80;;;13.90;99.90;;;;;;5009958;28;20244;-52
2021/05/18 15:09:41;;;;;;;4.13;3.73;;;13.90;99.90;;;;;;5008053;28;20241;-54
2021/05/18 15:12:10;;;;;;;4.63;3.90;;;13.90;99.90;;;;;;5007919;28;20326;-57
2021/05/18 15:14:38;;;;;;;3.87;3.57;;;13.90;99.90;;;;;;5009508;28;20620;-53
2021/05/18 15:17:07;;;;;;;4.33;3.93;;;13.90;99.90;;;;;;5008727;28;20240;-55
2021/05/18 15:19:35;;;;;;;4.20;3.60;;;13.80;99.90;;;;;;5010411;28;20295;-56
2021/05/18 15:22:04;;;;;;;3.77;3.47;;;13.70;99.90;;;;;;5006339;28;20595;-52
2021/05/18 15:24:32;;;;;;;4.53;3.53;;;13.80;99.90;;;;;;5008801;28;20225;-55
2021/05/18 15:27:00;;;;;;;4.17;3.77;;;13.70;99.90;;;;;;5017927;28;20631;-52
2021/05/18 15:29:28;;;;;;;4.33;3.10;;;13.70;99.90;;;;;;4987750;28;20560;-53
2021/05/18 15:31:56;;;;;;;3.30;3.07;;;13.70;99.90;;;;;;4989017;28;20339;-55
2021/05/18 15:34:26;;;;;;;3.60;3.30;;;13.70;99.90;;;;;;4987895;28;20284;-56
2021/05/18 15:36:56;;;;;;;3.47;3.17;;;13.80;99.90;;;;;;4990787;28;20240;-54
2021/05/18 15:39:25;;;;;;;3.17;2.87;;;13.80;99.90;;;;;;5004958;28;20719;-56
2021/05/18 15:41:53;;;;;;;3.93;3.03;;;13.80;99.90;;;;;;5006768;28;20241;-55
2021/05/18 15:44:21;;;;;;;3.57;2.90;;;14.00;99.90;;;;;;5007208;28;20259;-56
2021/05/18 15:46:49;;;;;;;3.40;3.10;;;14.00;99.90;;;;;;5006723;28;20259;-52
2021/05/18 15:49:16;;;;;;;3.70;3.37;;;14.20;99.90;;;;;;5006392;28;20759;-53
2021/05/18 15:51:45;;;;;;;3.83;3.23;;;14.20;99.90;;;;;;4992138;28;20233;-53
2021/05/18 15:54:13;;;;;;;3.10;2.87;;;14.30;99.90;;;;;;5006876;28;20640;-52
2021/05/18 15:56:41;;;;;;;3.40;3.10;;;14.20;99.90;;;;;;5010401;28;20281;-55
2021/05/18 15:59:09;;;;;;;3.67;3.30;;;14.30;99.90;;;;;;5004722;28;20511;-55
2021/05/18 16:01:38;;;;;;;3.47;3.17;;;14.30;99.90;;;;;;5007001;28;20243;-53
2021/05/18 16:04:07;;;;;;;4.10;3.30;;;14.30;99.90;;;;;;5009648;28;20236;-55
2021/05/18 16:06:39;;;;;;;4.43;3.80;;;14.30;99.90;;;;;;5009118;28;20312;-55
2021/05/18 16:09:09;;;;;;;4.13;3.73;;;14.30;99.90;;;;;;5008638;28;20248;-57
2021/05/18 16:11:37;;;;;;;4.60;4.13;;;14.30;99.90;;;;;;5008272;28;20252;-53
2021/05/18 16:14:06;;;;;;;4.03;3.63;;;14.30;99.90;;;;;;5009455;28;20233;-54
2021/05/18 16:16:35;;;;;;;3.50;3.20;;;14.30;99.90;;;;;;5008946;28;20618;-53
2021/05/18 16:19:04;;;;;;;3.57;3.27;;;14.40;99.90;;;;;;5024939;28;20232;-55
2021/05/18 16:21:33;;;;;;;3.93;3.57;;;14.40;99.90;;;;;;5012828;28;20233;-54
2021/05/18 16:24:01;;;;;;;3.97;3.60;;;14.40;99.90;;;;;;5009961;28;20229;-57
2021/05/18 16:26:32;;;;;;;3.77;3.47;;;14.40;99.90;;;;;;5009697;28;20237;-55
2021/05/18 16:29:02;;;;;;;3.60;3.00;;;14.40;99.90;;;;;;5029249;28;20987;-54
2021/05/18 16:31:32;;;;;;;3.70;3.30;;;14.50;99.90;;;;;;5027936;28;20509;-55
2021/05/18 16:34:00;;;;;;;2.70;2.50;;;14.40;99.90;;;;;;5029546;28;20664;-54
2021/05/18 16:36:28;;;;;;;5.50;5.00;;;14.40;99.90;;;;;;5028978;28;20590;-53
2021/05/18 16:38:57;;;;;;;5.87;5.27;;;14.30;99.90;;;;;;5028759;28;20236;-53
2021/05/18 16:41:38;;;;;;;6.00;5.40;;;14.30;99.90;;;;;;5012227;28;20565;-55
2021/05/18 16:44:10;;;;;;;6.80;6.13;;;14.30;99.90;;;;;;5008632;28;20762;-57
2021/05/18 16:46:39;;;;;;;7.33;6.57;;;14.20;99.90;;;;;;5008803;28;20235;-52
2021/05/18 16:49:08;;;;;;;7.87;6.27;;;14.20;99.90;;;;;;5024210;28;20748;-53
2021/05/18 16:51:38;;;;;;;7.43;6.73;;;14.20;99.90;;;;;;5027974;28;20318;-56
2021/05/18 16:54:08;;;;;;;7.30;6.60;;;14.20;99.90;;;;;;5024786;28;20231;-57
2021/05/18 16:56:38;;;;;;;7.20;6.50;;;14.30;99.90;;;;;;5023821;28;20699;-52
2021/05/18 16:59:08;;;;;;;6.70;6.07;;;14.30;99.90;;;;;;5024313;28;20780;-52
2021/05/18 17:01:36;;;;;;;6.73;6.10;;;14.30;99.90;;;;;;5010430;28;20306;-53
2021/05/18 17:04:18;;;;;;;7.53;6.73;;;14.40;99.90;;;;;;5000222;28;20781;-56
2021/05/18 17:06:49;;;;;;;7.60;6.73;;;14.30;99.90;;;;;;5003318;28;20244;-53
2021/05/18 17:09:18;;;;;;;7.93;6.43;;;14.30;99.90;;;;;;4992678;28;20255;-56
2021/05/18 17:11:48;;;;;;;7.10;6.50;;;14.30;99.90;;;;;;5037988;28;20349;-54
2021/05/18 17:14:15;;;;;;;7.40;6.67;;;14.20;99.90;;;;;;5028821;28;20240;-54